Airfield :
LOGIN :

Register | Disclaimer

   EN    FR    IT 

 










Legend :    VFR   Marginal VFR   IFR   Intensive IFR   Very Intensive IFR
Visi :
Ceiling :
>= 8 km
>= 3000ft
5 to 8 km
1000 to 3000 ft
1500m to 5 km
500 to 1000 ft
800 to 1500m
200 to 500 ft
< 800m
< 200 ft
Symbols :   Thunderstorms  Fog  Heavy snow  Heavy precipitations  Wind > 20 kt
SIGMETs :     Misc.  Thunderstorms  Icing  Turbulence  Mountain Waves  Volcanic Ashes






- Airport Elevation : 51 ft
- IATA code : GWT


EDXW - Westerland-Sylt Island

CURRENT METAR :
  • 041020Z 13017KT 9999 OVC020 02/M01 Q0988

EXPIRED METARs :
  • 040950Z AUTO 13017KT 9999 // SCT020/// BKN024/// OVC031/// 02/M01 Q0988
  • 040920Z AUTO 13018KT 7000 // BKN021/// OVC027/// 01/M01 Q0988
  • 040850Z AUTO 13018KT 8000 // OVC025/// 01/M01 Q0988
  • 040820Z 13018KT 9000 -DZ OVC026 01/M02 Q0988
  • 040750Z 12017KT 9999 -DZ OVC032 01/M02 Q0987
  • 040720Z AUTO 12017KT 9999 // BKN033/// OVC042/// 01/M01 Q0987

Expired Forecast.



MET'MAP, your aeronautical weather chart ! - Copyright ORBIFLY December 2007 - Disclaimer

ORBIFLY MET'MAP TEAM :

Programming & Development : Alexandra Zaïnal
Concept & original design : Baudouin d'Aumeries
Assistance for programming : Marc-Olivier Méhu
Technical & hardware support : Manuel Goepfert

Contact : metmap@orbifly.com




SOURCES & CREDITS :

   NOAA